sensor_id;sensor_type;location;lat;lon;timestamp;P1;durP1;ratioP1;P2;durP2;ratioP2
37805;SDS011;25082;50.870;0.022;2023-05-07T00:01:42;5.50;;;2.05;;
37805;SDS011;25082;50.870;0.022;2023-05-07T00:04:08;4.68;;;2.00;;
37805;SDS011;25082;50.870;0.022;2023-05-07T00:06:34;3.55;;;2.00;;
37805;SDS011;25082;50.870;0.022;2023-05-07T00:09:00;4.80;;;1.92;;
37805;SDS011;25082;50.870;0.022;2023-05-07T00:11:27;4.32;;;2.33;;
37805;SDS011;25082;50.870;0.022;2023-05-07T00:13:53;5.53;;;2.25;;
37805;SDS011;25082;50.870;0.022;2023-05-07T00:16:19;9.13;;;2.55;;
37805;SDS011;25082;50.870;0.022;2023-05-07T00:18:45;5.03;;;2.30;;
37805;SDS011;25082;50.870;0.022;2023-05-07T00:21:11;5.45;;;2.20;;
37805;SDS011;25082;50.870;0.022;2023-05-07T00:23:36;4.22;;;2.30;;
37805;SDS011;25082;50.870;0.022;2023-05-07T00:26:02;5.00;;;2.47;;
37805;SDS011;25082;50.870;0.022;2023-05-07T00:28:28;5.13;;;2.30;;
37805;SDS011;25082;50.870;0.022;2023-05-07T00:30:54;7.10;;;2.80;;
37805;SDS011;25082;50.870;0.022;2023-05-07T00:33:20;6.68;;;2.65;;
37805;SDS011;25082;50.870;0.022;2023-05-07T00:35:47;9.05;;;2.47;;
37805;SDS011;25082;50.870;0.022;2023-05-07T00:38:13;5.88;;;2.95;;
37805;SDS011;25082;50.870;0.022;2023-05-07T00:40:38;5.80;;;2.30;;
37805;SDS011;25082;50.870;0.022;2023-05-07T00:43:04;5.90;;;2.65;;
37805;SDS011;25082;50.870;0.022;2023-05-07T00:45:30;5.63;;;2.47;;
37805;SDS011;25082;50.870;0.022;2023-05-07T00:47:59;6.63;;;2.63;;
37805;SDS011;25082;50.870;0.022;2023-05-07T00:50:27;6.88;;;2.60;;
37805;SDS011;25082;50.870;0.022;2023-05-07T00:52:54;5.88;;;2.53;;
37805;SDS011;25082;50.870;0.022;2023-05-07T00:55:21;5.68;;;2.90;;
37805;SDS011;25082;50.870;0.022;2023-05-07T00:57:48;5.22;;;2.78;;
37805;SDS011;25082;50.870;0.022;2023-05-07T01:00:16;6.95;;;2.83;;
37805;SDS011;25082;50.870;0.022;2023-05-07T01:02:43;6.32;;;3.15;;
37805;SDS011;25082;50.870;0.022;2023-05-07T01:05:09;6.80;;;3.28;;
37805;SDS011;25082;50.870;0.022;2023-05-07T01:07:38;7.05;;;3.58;;
37805;SDS011;25082;50.870;0.022;2023-05-07T01:10:06;7.70;;;3.60;;
37805;SDS011;25082;50.870;0.022;2023-05-07T01:12:34;7.97;;;3.38;;
37805;SDS011;25082;50.870;0.022;2023-05-07T01:15:01;5.68;;;3.13;;
37805;SDS011;25082;50.870;0.022;2023-05-07T01:17:28;5.65;;;2.83;;
37805;SDS011;25082;50.870;0.022;2023-05-07T01:19:54;8.18;;;4.00;;
37805;SDS011;25082;50.870;0.022;2023-05-07T01:22:38;9.23;;;3.72;;
37805;SDS011;25082;50.870;0.022;2023-05-07T01:25:05;6.15;;;3.00;;
37805;SDS011;25082;50.870;0.022;2023-05-07T01:27:32;6.63;;;3.20;;
37805;SDS011;25082;50.870;0.022;2023-05-07T01:30:02;8.00;;;3.38;;
37805;SDS011;25082;50.870;0.022;2023-05-07T01:32:33;5.07;;;2.70;;
37805;SDS011;25082;50.870;0.022;2023-05-07T01:35:15;6.88;;;2.83;;
37805;SDS011;25082;50.870;0.022;2023-05-07T01:37:45;5.95;;;3.03;;
37805;SDS011;25082;50.870;0.022;2023-05-07T01:40:12;8.05;;;3.15;;
37805;SDS011;25082;50.870;0.022;2023-05-07T01:42:39;5.05;;;2.65;;
37805;SDS011;25082;50.870;0.022;2023-05-07T01:45:06;8.18;;;2.90;;
37805;SDS011;25082;50.870;0.022;2023-05-07T01:47:32;8.88;;;3.25;;
37805;SDS011;25082;50.870;0.022;2023-05-07T01:49:59;5.97;;;3.40;;
37805;SDS011;25082;50.870;0.022;2023-05-07T01:52:25;6.20;;;3.20;;
37805;SDS011;25082;50.870;0.022;2023-05-07T01:54:52;5.78;;;3.28;;
37805;SDS011;25082;50.870;0.022;2023-05-07T01:57:18;6.78;;;3.40;;
37805;SDS011;25082;50.870;0.022;2023-05-07T01:59:44;8.05;;;3.20;;
37805;SDS011;25082;50.870;0.022;2023-05-07T02:02:10;4.65;;;2.83;;
37805;SDS011;25082;50.870;0.022;2023-05-07T02:04:36;5.13;;;3.05;;
37805;SDS011;25082;50.870;0.022;2023-05-07T02:07:01;5.60;;;2.67;;
37805;SDS011;25082;50.870;0.022;2023-05-07T02:09:27;4.95;;;3.20;;
37805;SDS011;25082;50.870;0.022;2023-05-07T02:11:53;4.30;;;2.78;;
37805;SDS011;25082;50.870;0.022;2023-05-07T02:14:18;6.05;;;3.35;;
37805;SDS011;25082;50.870;0.022;2023-05-07T02:16:45;4.40;;;2.80;;
37805;SDS011;25082;50.870;0.022;2023-05-07T02:19:11;4.82;;;2.90;;
37805;SDS011;25082;50.870;0.022;2023-05-07T02:21:37;5.07;;;2.88;;
37805;SDS011;25082;50.870;0.022;2023-05-07T02:24:02;5.82;;;3.15;;
37805;SDS011;25082;50.870;0.022;2023-05-07T02:26:28;5.13;;;3.05;;
37805;SDS011;25082;50.870;0.022;2023-05-07T02:28:54;4.88;;;3.15;;
37805;SDS011;25082;50.870;0.022;2023-05-07T02:31:19;5.97;;;2.72;;
37805;SDS011;25082;50.870;0.022;2023-05-07T02:33:45;5.70;;;3.08;;
37805;SDS011;25082;50.870;0.022;2023-05-07T02:36:11;5.28;;;2.60;;
37805;SDS011;25082;50.870;0.022;2023-05-07T02:38:37;4.70;;;2.75;;
37805;SDS011;25082;50.870;0.022;2023-05-07T02:41:04;5.03;;;2.60;;
37805;SDS011;25082;50.870;0.022;2023-05-07T02:43:30;5.05;;;2.80;;
37805;SDS011;25082;50.870;0.022;2023-05-07T02:48:31;6.50;;;2.95;;
37805;SDS011;25082;50.870;0.022;2023-05-07T02:50:58;4.70;;;2.75;;
37805;SDS011;25082;50.870;0.022;2023-05-07T02:53:24;3.72;;;2.33;;
37805;SDS011;25082;50.870;0.022;2023-05-07T02:55:55;3.95;;;2.42;;
37805;SDS011;25082;50.870;0.022;2023-05-07T02:58:24;5.50;;;2.72;;
37805;SDS011;25082;50.870;0.022;2023-05-07T03:00:50;4.60;;;3.03;;
37805;SDS011;25082;50.870;0.022;2023-05-07T03:03:17;6.00;;;2.53;;
37805;SDS011;25082;50.870;0.022;2023-05-07T03:05:42;6.50;;;2.70;;
37805;SDS011;25082;50.870;0.022;2023-05-07T03:08:08;4.72;;;2.47;;
37805;SDS011;25082;50.870;0.022;2023-05-07T03:10:35;5.80;;;2.72;;
37805;SDS011;25082;50.870;0.022;2023-05-07T03:13:01;6.53;;;3.00;;
37805;SDS011;25082;50.870;0.022;2023-05-07T03:15:27;3.70;;;2.20;;
37805;SDS011;25082;50.870;0.022;2023-05-07T03:17:53;7.32;;;2.40;;
37805;SDS011;25082;50.870;0.022;2023-05-07T03:20:19;2.92;;;1.92;;
37805;SDS011;25082;50.870;0.022;2023-05-07T03:22:45;4.82;;;2.58;;
37805;SDS011;25082;50.870;0.022;2023-05-07T03:25:10;4.45;;;2.22;;
37805;SDS011;25082;50.870;0.022;2023-05-07T03:27:37;3.90;;;2.00;;
37805;SDS011;25082;50.870;0.022;2023-05-07T03:30:03;7.35;;;2.20;;
37805;SDS011;25082;50.870;0.022;2023-05-07T03:32:29;4.53;;;2.22;;
37805;SDS011;25082;50.870;0.022;2023-05-07T03:34:54;4.97;;;2.10;;
37805;SDS011;25082;50.870;0.022;2023-05-07T03:37:20;3.58;;;2.15;;
37805;SDS011;25082;50.870;0.022;2023-05-07T03:39:46;4.88;;;2.33;;
37805;SDS011;25082;50.870;0.022;2023-05-07T03:42:12;4.55;;;2.03;;
37805;SDS011;25082;50.870;0.022;2023-05-07T03:44:38;4.22;;;2.53;;
37805;SDS011;25082;50.870;0.022;2023-05-07T03:47:04;4.45;;;2.15;;
37805;SDS011;25082;50.870;0.022;2023-05-07T03:49:31;4.35;;;2.50;;
37805;SDS011;25082;50.870;0.022;2023-05-07T03:51:57;4.78;;;2.13;;
37805;SDS011;25082;50.870;0.022;2023-05-07T03:54:22;5.50;;;2.35;;
37805;SDS011;25082;50.870;0.022;2023-05-07T03:56:48;2.38;;;1.83;;
37805;SDS011;25082;50.870;0.022;2023-05-07T03:59:14;4.00;;;2.03;;
37805;SDS011;25082;50.870;0.022;2023-05-07T04:01:39;3.85;;;2.10;;
37805;SDS011;25082;50.870;0.022;2023-05-07T04:04:05;3.58;;;2.03;;
37805;SDS011;25082;50.870;0.022;2023-05-07T04:06:31;3.60;;;2.42;;
37805;SDS011;25082;50.870;0.022;2023-05-07T04:08:57;3.65;;;2.17;;
37805;SDS011;25082;50.870;0.022;2023-05-07T04:11:23;3.22;;;2.28;;
37805;SDS011;25082;50.870;0.022;2023-05-07T04:13:49;3.45;;;2.03;;
37805;SDS011;25082;50.870;0.022;2023-05-07T04:16:15;2.97;;;1.67;;
37805;SDS011;25082;50.870;0.022;2023-05-07T04:18:41;2.38;;;1.83;;
37805;SDS011;25082;50.870;0.022;2023-05-07T04:21:13;2.60;;;1.70;;
37805;SDS011;25082;50.870;0.022;2023-05-07T04:23:43;2.85;;;1.77;;
37805;SDS011;25082;50.870;0.022;2023-05-07T04:26:08;2.70;;;1.67;;
37805;SDS011;25082;50.870;0.022;2023-05-07T04:28:34;3.40;;;1.98;;
37805;SDS011;25082;50.870;0.022;2023-05-07T04:31:00;2.75;;;2.10;;
37805;SDS011;25082;50.870;0.022;2023-05-07T04:33:26;2.33;;;1.58;;
37805;SDS011;25082;50.870;0.022;2023-05-07T04:35:52;2.80;;;1.90;;
37805;SDS011;25082;50.870;0.022;2023-05-07T04:38:18;2.55;;;1.88;;
37805;SDS011;25082;50.870;0.022;2023-05-07T04:40:44;3.50;;;2.17;;
37805;SDS011;25082;50.870;0.022;2023-05-07T04:43:09;3.67;;;2.03;;
37805;SDS011;25082;50.870;0.022;2023-05-07T04:45:35;2.30;;;1.83;;
37805;SDS011;25082;50.870;0.022;2023-05-07T04:48:01;1.98;;;1.60;;
37805;SDS011;25082;50.870;0.022;2023-05-07T04:50:27;3.33;;;1.60;;
37805;SDS011;25082;50.870;0.022;2023-05-07T04:52:53;3.08;;;1.95;;
37805;SDS011;25082;50.870;0.022;2023-05-07T04:55:19;4.97;;;2.40;;
37805;SDS011;25082;50.870;0.022;2023-05-07T04:57:44;2.95;;;1.80;;
37805;SDS011;25082;50.870;0.022;2023-05-07T05:00:10;2.05;;;1.55;;
37805;SDS011;25082;50.870;0.022;2023-05-07T05:02:39;2.30;;;1.80;;
37805;SDS011;25082;50.870;0.022;2023-05-07T05:05:05;1.95;;;1.42;;
37805;SDS011;25082;50.870;0.022;2023-05-07T05:07:32;2.50;;;1.42;;
37805;SDS011;25082;50.870;0.022;2023-05-07T05:09:58;2.88;;;1.85;;
37805;SDS011;25082;50.870;0.022;2023-05-07T05:12:24;1.90;;;1.70;;
37805;SDS011;25082;50.870;0.022;2023-05-07T05:14:49;2.65;;;1.70;;
37805;SDS011;25082;50.870;0.022;2023-05-07T05:17:15;2.38;;;1.83;;
37805;SDS011;25082;50.870;0.022;2023-05-07T05:19:41;2.03;;;1.60;;
37805;SDS011;25082;50.870;0.022;2023-05-07T05:22:06;1.88;;;1.50;;
37805;SDS011;25082;50.870;0.022;2023-05-07T05:24:32;2.17;;;1.48;;
37805;SDS011;25082;50.870;0.022;2023-05-07T05:26:58;2.20;;;1.70;;
37805;SDS011;25082;50.870;0.022;2023-05-07T05:29:27;2.15;;;1.80;;
37805;SDS011;25082;50.870;0.022;2023-05-07T05:31:53;2.38;;;1.85;;
37805;SDS011;25082;50.870;0.022;2023-05-07T05:34:19;1.50;;;1.30;;
37805;SDS011;25082;50.870;0.022;2023-05-07T05:36:45;2.63;;;1.65;;
37805;SDS011;25082;50.870;0.022;2023-05-07T05:39:10;2.22;;;1.85;;
37805;SDS011;25082;50.870;0.022;2023-05-07T05:41:36;2.00;;;1.77;;
37805;SDS011;25082;50.870;0.022;2023-05-07T05:44:02;4.40;;;2.22;;
37805;SDS011;25082;50.870;0.022;2023-05-07T05:46:27;2.63;;;1.98;;
37805;SDS011;25082;50.870;0.022;2023-05-07T05:48:53;3.13;;;2.20;;
37805;SDS011;25082;50.870;0.022;2023-05-07T05:51:20;2.70;;;2.05;;
37805;SDS011;25082;50.870;0.022;2023-05-07T05:53:46;2.72;;;1.95;;
37805;SDS011;25082;50.870;0.022;2023-05-07T05:56:12;3.38;;;2.28;;
37805;SDS011;25082;50.870;0.022;2023-05-07T05:58:37;2.47;;;1.80;;
37805;SDS011;25082;50.870;0.022;2023-05-07T06:01:03;3.25;;;2.40;;
37805;SDS011;25082;50.870;0.022;2023-05-07T06:03:30;3.28;;;2.20;;
37805;SDS011;25082;50.870;0.022;2023-05-07T06:05:57;2.95;;;2.35;;
37805;SDS011;25082;50.870;0.022;2023-05-07T06:08:23;2.20;;;1.83;;
37805;SDS011;25082;50.870;0.022;2023-05-07T06:10:49;2.80;;;2.17;;
37805;SDS011;25082;50.870;0.022;2023-05-07T06:13:15;2.75;;;2.15;;
37805;SDS011;25082;50.870;0.022;2023-05-07T06:15:40;2.60;;;2.17;;
37805;SDS011;25082;50.870;0.022;2023-05-07T06:18:06;2.83;;;2.30;;
37805;SDS011;25082;50.870;0.022;2023-05-07T06:20:32;4.85;;;2.63;;
37805;SDS011;25082;50.870;0.022;2023-05-07T06:22:58;2.42;;;1.90;;
37805;SDS011;25082;50.870;0.022;2023-05-07T06:25:23;2.47;;;2.03;;
37805;SDS011;25082;50.870;0.022;2023-05-07T06:27:49;3.22;;;2.15;;
37805;SDS011;25082;50.870;0.022;2023-05-07T06:30:15;2.80;;;2.05;;
37805;SDS011;25082;50.870;0.022;2023-05-07T06:32:41;2.85;;;2.15;;
37805;SDS011;25082;50.870;0.022;2023-05-07T06:35:06;2.83;;;2.05;;
37805;SDS011;25082;50.870;0.022;2023-05-07T06:37:32;2.20;;;1.70;;
37805;SDS011;25082;50.870;0.022;2023-05-07T06:39:58;3.38;;;2.10;;
37805;SDS011;25082;50.870;0.022;2023-05-07T06:42:24;2.55;;;1.85;;
37805;SDS011;25082;50.870;0.022;2023-05-07T06:44:50;2.42;;;1.98;;
37805;SDS011;25082;50.870;0.022;2023-05-07T06:47:15;4.05;;;2.35;;
37805;SDS011;25082;50.870;0.022;2023-05-07T06:49:41;2.63;;;2.25;;
37805;SDS011;25082;50.870;0.022;2023-05-07T06:52:07;2.88;;;2.10;;
37805;SDS011;25082;50.870;0.022;2023-05-07T06:54:33;2.58;;;2.20;;
37805;SDS011;25082;50.870;0.022;2023-05-07T06:56:58;2.75;;;2.10;;
37805;SDS011;25082;50.870;0.022;2023-05-07T06:59:24;3.13;;;2.13;;
37805;SDS011;25082;50.870;0.022;2023-05-07T07:01:50;2.58;;;2.10;;
37805;SDS011;25082;50.870;0.022;2023-05-07T07:04:15;4.35;;;2.25;;
37805;SDS011;25082;50.870;0.022;2023-05-07T07:06:42;2.90;;;2.40;;
37805;SDS011;25082;50.870;0.022;2023-05-07T07:09:08;8.38;;;2.65;;
37805;SDS011;25082;50.870;0.022;2023-05-07T07:11:34;3.42;;;2.60;;
37805;SDS011;25082;50.870;0.022;2023-05-07T07:14:00;3.75;;;2.55;;
37805;SDS011;25082;50.870;0.022;2023-05-07T07:16:26;3.58;;;2.47;;
37805;SDS011;25082;50.870;0.022;2023-05-07T07:18:52;3.38;;;2.35;;
37805;SDS011;25082;50.870;0.022;2023-05-07T07:21:17;6.30;;;2.53;;
37805;SDS011;25082;50.870;0.022;2023-05-07T07:23:43;4.65;;;2.35;;
37805;SDS011;25082;50.870;0.022;2023-05-07T07:26:09;4.40;;;2.50;;
37805;SDS011;25082;50.870;0.022;2023-05-07T07:28:34;4.93;;;2.50;;
37805;SDS011;25082;50.870;0.022;2023-05-07T07:31:00;4.30;;;2.58;;
37805;SDS011;25082;50.870;0.022;2023-05-07T07:33:26;5.20;;;2.67;;
37805;SDS011;25082;50.870;0.022;2023-05-07T07:35:52;6.15;;;2.75;;
37805;SDS011;25082;50.870;0.022;2023-05-07T07:38:17;3.53;;;2.80;;
37805;SDS011;25082;50.870;0.022;2023-05-07T07:40:43;8.32;;;2.35;;
37805;SDS011;25082;50.870;0.022;2023-05-07T07:43:09;6.35;;;2.85;;
37805;SDS011;25082;50.870;0.022;2023-05-07T07:45:35;5.63;;;2.80;;
37805;SDS011;25082;50.870;0.022;2023-05-07T07:48:00;6.18;;;2.78;;
37805;SDS011;25082;50.870;0.022;2023-05-07T07:50:26;8.77;;;3.28;;
37805;SDS011;25082;50.870;0.022;2023-05-07T07:52:52;7.03;;;2.80;;
37805;SDS011;25082;50.870;0.022;2023-05-07T07:55:19;5.35;;;2.65;;
37805;SDS011;25082;50.870;0.022;2023-05-07T07:57:48;4.25;;;2.90;;
37805;SDS011;25082;50.870;0.022;2023-05-07T08:00:16;9.70;;;2.72;;
37805;SDS011;25082;50.870;0.022;2023-05-07T08:02:42;5.28;;;2.70;;
37805;SDS011;25082;50.870;0.022;2023-05-07T08:05:08;4.97;;;2.70;;
37805;SDS011;25082;50.870;0.022;2023-05-07T08:07:33;5.88;;;3.00;;
37805;SDS011;25082;50.870;0.022;2023-05-07T08:09:59;3.78;;;2.70;;
37805;SDS011;25082;50.870;0.022;2023-05-07T08:12:25;6.47;;;2.60;;
37805;SDS011;25082;50.870;0.022;2023-05-07T08:14:51;4.53;;;3.38;;
37805;SDS011;25082;50.870;0.022;2023-05-07T08:17:17;5.18;;;2.72;;
37805;SDS011;25082;50.870;0.022;2023-05-07T08:19:42;5.00;;;3.15;;
37805;SDS011;25082;50.870;0.022;2023-05-07T08:22:08;5.18;;;2.90;;
37805;SDS011;25082;50.870;0.022;2023-05-07T08:24:35;3.67;;;3.13;;
37805;SDS011;25082;50.870;0.022;2023-05-07T08:27:01;5.40;;;3.22;;
37805;SDS011;25082;50.870;0.022;2023-05-07T08:29:27;4.25;;;2.72;;
37805;SDS011;25082;50.870;0.022;2023-05-07T08:31:52;4.90;;;2.80;;
37805;SDS011;25082;50.870;0.022;2023-05-07T08:34:19;5.63;;;3.22;;
37805;SDS011;25082;50.870;0.022;2023-05-07T08:36:45;5.90;;;2.72;;
37805;SDS011;25082;50.870;0.022;2023-05-07T08:39:13;5.97;;;2.83;;
37805;SDS011;25082;50.870;0.022;2023-05-07T08:41:41;9.88;;;3.17;;
37805;SDS011;25082;50.870;0.022;2023-05-07T08:46:39;4.15;;;2.60;;
37805;SDS011;25082;50.870;0.022;2023-05-07T08:49:06;20.65;;;5.40;;
37805;SDS011;25082;50.870;0.022;2023-05-07T08:51:32;6.97;;;3.80;;
37805;SDS011;25082;50.870;0.022;2023-05-07T08:53:59;6.15;;;3.22;;
37805;SDS011;25082;50.870;0.022;2023-05-07T08:56:26;10.75;;;3.50;;
37805;SDS011;25082;50.870;0.022;2023-05-07T08:58:52;9.27;;;3.75;;
37805;SDS011;25082;50.870;0.022;2023-05-07T09:01:21;9.40;;;3.40;;
37805;SDS011;25082;50.870;0.022;2023-05-07T09:03:47;6.25;;;3.00;;
37805;SDS011;25082;50.870;0.022;2023-05-07T09:06:14;5.18;;;2.90;;
37805;SDS011;25082;50.870;0.022;2023-05-07T09:08:40;6.35;;;3.05;;
37805;SDS011;25082;50.870;0.022;2023-05-07T09:11:09;7.13;;;2.90;;
37805;SDS011;25082;50.870;0.022;2023-05-07T09:13:35;7.03;;;3.20;;
37805;SDS011;25082;50.870;0.022;2023-05-07T09:16:12;7.53;;;3.28;;
37805;SDS011;25082;50.870;0.022;2023-05-07T09:18:44;7.00;;;3.28;;
37805;SDS011;25082;50.870;0.022;2023-05-07T09:21:19;6.25;;;3.30;;
37805;SDS011;25082;50.870;0.022;2023-05-07T09:23:47;3.88;;;2.83;;
37805;SDS011;25082;50.870;0.022;2023-05-07T09:26:15;3.78;;;2.78;;
37805;SDS011;25082;50.870;0.022;2023-05-07T09:28:41;4.63;;;3.42;;
37805;SDS011;25082;50.870;0.022;2023-05-07T09:31:10;4.82;;;3.13;;
37805;SDS011;25082;50.870;0.022;2023-05-07T09:33:36;4.28;;;3.13;;
37805;SDS011;25082;50.870;0.022;2023-05-07T09:36:06;3.92;;;2.85;;
37805;SDS011;25082;50.870;0.022;2023-05-07T09:38:34;4.55;;;3.30;;
37805;SDS011;25082;50.870;0.022;2023-05-07T09:41:04;5.38;;;2.78;;
37805;SDS011;25082;50.870;0.022;2023-05-07T09:43:35;3.50;;;2.60;;
37805;SDS011;25082;50.870;0.022;2023-05-07T09:46:03;4.18;;;3.30;;
37805;SDS011;25082;50.870;0.022;2023-05-07T09:48:40;6.10;;;3.08;;
37805;SDS011;25082;50.870;0.022;2023-05-07T09:53:56;8.13;;;3.25;;
37805;SDS011;25082;50.870;0.022;2023-05-07T09:56:23;6.03;;;3.00;;
37805;SDS011;25082;50.870;0.022;2023-05-07T09:58:50;5.70;;;2.75;;
37805;SDS011;25082;50.870;0.022;2023-05-07T10:01:19;4.35;;;2.60;;
37805;SDS011;25082;50.870;0.022;2023-05-07T10:03:47;6.13;;;3.10;;
37805;SDS011;25082;50.870;0.022;2023-05-07T10:06:15;5.03;;;2.72;;
37805;SDS011;25082;50.870;0.022;2023-05-07T10:08:42;5.68;;;2.83;;
37805;SDS011;25082;50.870;0.022;2023-05-07T10:11:09;3.67;;;2.45;;
37805;SDS011;25082;50.870;0.022;2023-05-07T10:13:35;5.82;;;2.95;;
37805;SDS011;25082;50.870;0.022;2023-05-07T10:16:04;7.07;;;2.97;;
37805;SDS011;25082;50.870;0.022;2023-05-07T10:18:31;9.77;;;3.30;;
37805;SDS011;25082;50.870;0.022;2023-05-07T10:21:07;6.65;;;3.17;;
37805;SDS011;25082;50.870;0.022;2023-05-07T10:23:35;3.67;;;2.70;;
37805;SDS011;25082;50.870;0.022;2023-05-07T10:26:04;4.18;;;2.65;;
37805;SDS011;25082;50.870;0.022;2023-05-07T10:28:33;6.43;;;3.50;;
37805;SDS011;25082;50.870;0.022;2023-05-07T10:33:41;5.10;;;3.20;;
37805;SDS011;25082;50.870;0.022;2023-05-07T10:36:09;6.15;;;3.38;;
37805;SDS011;25082;50.870;0.022;2023-05-07T10:38:35;7.18;;;3.15;;
37805;SDS011;25082;50.870;0.022;2023-05-07T10:41:01;4.80;;;3.67;;
37805;SDS011;25082;50.870;0.022;2023-05-07T10:43:40;8.18;;;3.53;;
37805;SDS011;25082;50.870;0.022;2023-05-07T10:51:29;5.32;;;2.97;;
37805;SDS011;25082;50.870;0.022;2023-05-07T10:56:37;8.43;;;3.50;;
37805;SDS011;25082;50.870;0.022;2023-05-07T11:01:59;13.40;;;5.13;;
37805;SDS011;25082;50.870;0.022;2023-05-07T11:04:28;9.52;;;4.93;;
37805;SDS011;25082;50.870;0.022;2023-05-07T11:15:06;12.13;;;5.25;;
37805;SDS011;25082;50.870;0.022;2023-05-07T11:17:33;10.00;;;4.35;;
37805;SDS011;25082;50.870;0.022;2023-05-07T11:20:00;9.70;;;3.97;;
37805;SDS011;25082;50.870;0.022;2023-05-07T11:25:01;9.40;;;3.80;;
37805;SDS011;25082;50.870;0.022;2023-05-07T11:27:27;8.43;;;3.35;;
37805;SDS011;25082;50.870;0.022;2023-05-07T11:29:54;10.77;;;4.28;;
37805;SDS011;25082;50.870;0.022;2023-05-07T11:32:26;13.27;;;5.07;;
37805;SDS011;25082;50.870;0.022;2023-05-07T11:34:55;10.52;;;3.65;;
37805;SDS011;25082;50.870;0.022;2023-05-07T11:37:22;15.65;;;4.40;;
37805;SDS011;25082;50.870;0.022;2023-05-07T11:39:49;10.73;;;4.32;;
37805;SDS011;25082;50.870;0.022;2023-05-07T11:42:30;8.60;;;3.70;;
37805;SDS011;25082;50.870;0.022;2023-05-07T11:44:57;12.00;;;4.68;;
37805;SDS011;25082;50.870;0.022;2023-05-07T11:47:23;10.27;;;4.15;;
37805;SDS011;25082;50.870;0.022;2023-05-07T11:49:52;12.77;;;4.32;;
37805;SDS011;25082;50.870;0.022;2023-05-07T11:52:20;7.53;;;3.45;;
37805;SDS011;25082;50.870;0.022;2023-05-07T11:54:53;11.48;;;4.25;;
37805;SDS011;25082;50.870;0.022;2023-05-07T11:57:20;14.02;;;4.47;;
37805;SDS011;25082;50.870;0.022;2023-05-07T11:59:46;12.00;;;4.30;;
37805;SDS011;25082;50.870;0.022;2023-05-07T12:02:16;11.40;;;4.05;;
37805;SDS011;25082;50.870;0.022;2023-05-07T12:04:42;20.42;;;5.32;;
37805;SDS011;25082;50.870;0.022;2023-05-07T12:07:12;12.77;;;4.25;;
37805;SDS011;25082;50.870;0.022;2023-05-07T12:09:41;28.25;;;4.47;;
37805;SDS011;25082;50.870;0.022;2023-05-07T12:12:07;15.40;;;4.43;;
37805;SDS011;25082;50.870;0.022;2023-05-07T12:14:37;10.75;;;4.13;;
37805;SDS011;25082;50.870;0.022;2023-05-07T12:17:04;11.65;;;3.83;;
37805;SDS011;25082;50.870;0.022;2023-05-07T12:19:30;9.93;;;4.57;;
37805;SDS011;25082;50.870;0.022;2023-05-07T12:21:56;12.57;;;4.88;;
37805;SDS011;25082;50.870;0.022;2023-05-07T12:24:23;7.93;;;3.70;;
37805;SDS011;25082;50.870;0.022;2023-05-07T12:26:48;9.85;;;4.28;;
37805;SDS011;25082;50.870;0.022;2023-05-07T12:29:14;13.60;;;4.75;;
37805;SDS011;25082;50.870;0.022;2023-05-07T12:31:43;16.60;;;4.18;;
37805;SDS011;25082;50.870;0.022;2023-05-07T12:34:10;13.68;;;4.97;;
37805;SDS011;25082;50.870;0.022;2023-05-07T12:36:37;13.75;;;4.50;;
37805;SDS011;25082;50.870;0.022;2023-05-07T12:39:05;13.70;;;4.65;;
37805;SDS011;25082;50.870;0.022;2023-05-07T12:41:34;10.35;;;4.13;;
37805;SDS011;25082;50.870;0.022;2023-05-07T12:44:16;16.42;;;4.65;;
37805;SDS011;25082;50.870;0.022;2023-05-07T12:46:42;13.13;;;4.30;;
37805;SDS011;25082;50.870;0.022;2023-05-07T12:49:08;14.45;;;4.38;;
37805;SDS011;25082;50.870;0.022;2023-05-07T12:51:34;11.52;;;4.28;;
37805;SDS011;25082;50.870;0.022;2023-05-07T12:54:00;10.38;;;3.95;;
37805;SDS011;25082;50.870;0.022;2023-05-07T12:56:26;11.30;;;3.78;;
37805;SDS011;25082;50.870;0.022;2023-05-07T12:58:52;7.90;;;4.18;;
37805;SDS011;25082;50.870;0.022;2023-05-07T13:01:28;12.70;;;4.72;;
37805;SDS011;25082;50.870;0.022;2023-05-07T13:03:55;15.00;;;4.78;;
37805;SDS011;25082;50.870;0.022;2023-05-07T13:06:20;11.00;;;4.03;;
37805;SDS011;25082;50.870;0.022;2023-05-07T13:08:46;10.20;;;4.20;;
37805;SDS011;25082;50.870;0.022;2023-05-07T13:11:12;11.07;;;4.90;;
37805;SDS011;25082;50.870;0.022;2023-05-07T13:13:39;8.65;;;3.97;;
37805;SDS011;25082;50.870;0.022;2023-05-07T13:16:06;7.10;;;3.72;;
37805;SDS011;25082;50.870;0.022;2023-05-07T13:18:33;7.93;;;3.92;;
37805;SDS011;25082;50.870;0.022;2023-05-07T13:21:00;7.28;;;4.40;;
37805;SDS011;25082;50.870;0.022;2023-05-07T13:23:26;8.45;;;4.63;;
37805;SDS011;25082;50.870;0.022;2023-05-07T13:25:53;6.40;;;4.45;;
37805;SDS011;25082;50.870;0.022;2023-05-07T13:28:19;8.82;;;4.65;;
37805;SDS011;25082;50.870;0.022;2023-05-07T13:30:45;11.02;;;4.35;;
37805;SDS011;25082;50.870;0.022;2023-05-07T13:33:11;12.82;;;4.55;;
37805;SDS011;25082;50.870;0.022;2023-05-07T13:35:37;10.52;;;4.38;;
37805;SDS011;25082;50.870;0.022;2023-05-07T13:38:03;4.97;;;3.72;;
37805;SDS011;25082;50.870;0.022;2023-05-07T13:40:29;8.32;;;4.78;;
37805;SDS011;25082;50.870;0.022;2023-05-07T13:42:56;8.02;;;3.53;;
37805;SDS011;25082;50.870;0.022;2023-05-07T13:45:23;6.47;;;3.67;;
37805;SDS011;25082;50.870;0.022;2023-05-07T13:47:54;7.63;;;4.57;;
37805;SDS011;25082;50.870;0.022;2023-05-07T13:50:20;7.07;;;4.03;;
37805;SDS011;25082;50.870;0.022;2023-05-07T13:52:46;7.65;;;3.83;;
37805;SDS011;25082;50.870;0.022;2023-05-07T13:55:16;10.00;;;3.30;;
37805;SDS011;25082;50.870;0.022;2023-05-07T13:57:54;8.80;;;3.60;;
37805;SDS011;25082;50.870;0.022;2023-05-07T14:00:21;6.43;;;3.58;;
37805;SDS011;25082;50.870;0.022;2023-05-07T14:02:48;6.18;;;3.03;;
37805;SDS011;25082;50.870;0.022;2023-05-07T14:05:13;9.30;;;4.63;;
37805;SDS011;25082;50.870;0.022;2023-05-07T14:07:39;5.63;;;3.72;;
37805;SDS011;25082;50.870;0.022;2023-05-07T14:10:05;6.80;;;3.95;;
37805;SDS011;25082;50.870;0.022;2023-05-07T14:12:32;9.73;;;3.80;;
37805;SDS011;25082;50.870;0.022;2023-05-07T14:14:58;8.57;;;4.30;;
37805;SDS011;25082;50.870;0.022;2023-05-07T14:17:24;8.63;;;4.15;;
37805;SDS011;25082;50.870;0.022;2023-05-07T14:19:51;10.07;;;3.90;;
37805;SDS011;25082;50.870;0.022;2023-05-07T14:22:19;6.18;;;3.88;;
37805;SDS011;25082;50.870;0.022;2023-05-07T14:24:46;4.78;;;3.22;;
37805;SDS011;25082;50.870;0.022;2023-05-07T14:27:12;9.07;;;3.97;;
37805;SDS011;25082;50.870;0.022;2023-05-07T14:29:38;7.88;;;3.88;;
37805;SDS011;25082;50.870;0.022;2023-05-07T14:32:04;7.80;;;4.25;;
37805;SDS011;25082;50.870;0.022;2023-05-07T14:34:30;5.80;;;3.55;;
37805;SDS011;25082;50.870;0.022;2023-05-07T14:36:56;9.73;;;3.88;;
37805;SDS011;25082;50.870;0.022;2023-05-07T14:39:22;8.15;;;4.40;;
37805;SDS011;25082;50.870;0.022;2023-05-07T14:41:48;7.65;;;3.90;;
37805;SDS011;25082;50.870;0.022;2023-05-07T14:44:14;7.47;;;3.85;;
37805;SDS011;25082;50.870;0.022;2023-05-07T14:46:40;5.63;;;3.92;;
37805;SDS011;25082;50.870;0.022;2023-05-07T14:49:05;6.40;;;3.65;;
37805;SDS011;25082;50.870;0.022;2023-05-07T14:51:32;6.22;;;3.75;;
37805;SDS011;25082;50.870;0.022;2023-05-07T14:53:58;6.30;;;4.45;;
37805;SDS011;25082;50.870;0.022;2023-05-07T14:56:23;6.55;;;3.63;;
37805;SDS011;25082;50.870;0.022;2023-05-07T14:58:49;5.32;;;3.83;;
37805;SDS011;25082;50.870;0.022;2023-05-07T15:01:15;6.65;;;3.95;;
37805;SDS011;25082;50.870;0.022;2023-05-07T15:03:41;8.82;;;4.40;;
37805;SDS011;25082;50.870;0.022;2023-05-07T15:06:07;7.60;;;3.60;;
37805;SDS011;25082;50.870;0.022;2023-05-07T15:08:33;5.13;;;3.45;;
37805;SDS011;25082;50.870;0.022;2023-05-07T15:10:58;7.20;;;3.67;;
37805;SDS011;25082;50.870;0.022;2023-05-07T15:13:24;6.50;;;3.42;;
37805;SDS011;25082;50.870;0.022;2023-05-07T15:15:50;7.55;;;3.60;;